sensor_id;sensor_type;location;lat;lon;timestamp;P1;durP1;ratioP1;P2;durP2;ratioP2
74636;SDS011;63141;54.616;39.754;2023-04-06T00:01:23;3.05;;;1.10;;
74636;SDS011;63141;54.616;39.754;2023-04-06T00:04:29;3.08;;;1.30;;
74636;SDS011;63141;54.616;39.754;2023-04-06T00:07:31;2.40;;;1.00;;
74636;SDS011;63141;54.616;39.754;2023-04-06T00:10:34;1.33;;;0.88;;
74636;SDS011;63141;54.616;39.754;2023-04-06T00:13:35;2.85;;;1.20;;
74636;SDS011;63141;54.616;39.754;2023-04-06T00:16:37;1.65;;;1.20;;
74636;SDS011;63141;54.616;39.754;2023-04-06T00:19:41;1.42;;;1.00;;
74636;SDS011;63141;54.616;39.754;2023-04-06T00:22:43;1.67;;;1.13;;
74636;SDS011;63141;54.616;39.754;2023-04-06T00:25:45;1.45;;;0.93;;
74636;SDS011;63141;54.616;39.754;2023-04-06T00:28:46;1.80;;;1.00;;
74636;SDS011;63141;54.616;39.754;2023-04-06T00:31:47;2.20;;;1.10;;
74636;SDS011;63141;54.616;39.754;2023-04-06T00:34:49;1.55;;;1.00;;
74636;SDS011;63141;54.616;39.754;2023-04-06T00:37:51;2.05;;;0.90;;
74636;SDS011;63141;54.616;39.754;2023-04-06T00:40:52;2.38;;;1.10;;
74636;SDS011;63141;54.616;39.754;2023-04-06T00:43:54;1.92;;;1.00;;
74636;SDS011;63141;54.616;39.754;2023-04-06T00:46:55;4.18;;;1.27;;
74636;SDS011;63141;54.616;39.754;2023-04-06T00:49:57;2.90;;;1.30;;
74636;SDS011;63141;54.616;39.754;2023-04-06T00:52:58;4.35;;;1.20;;
74636;SDS011;63141;54.616;39.754;2023-04-06T00:56:02;2.45;;;1.10;;
74636;SDS011;63141;54.616;39.754;2023-04-06T00:59:10;1.40;;;1.00;;
74636;SDS011;63141;54.616;39.754;2023-04-06T01:02:12;1.40;;;0.90;;
74636;SDS011;63141;54.616;39.754;2023-04-06T01:05:24;2.92;;;1.05;;
74636;SDS011;63141;54.616;39.754;2023-04-06T01:08:29;1.42;;;1.00;;
74636;SDS011;63141;54.616;39.754;2023-04-06T01:11:44;0.90;;;0.80;;
74636;SDS011;63141;54.616;39.754;2023-04-06T01:14:50;2.63;;;1.02;;
74636;SDS011;63141;54.616;39.754;2023-04-06T01:17:52;3.20;;;1.15;;
74636;SDS011;63141;54.616;39.754;2023-04-06T01:20:53;2.70;;;0.93;;
74636;SDS011;63141;54.616;39.754;2023-04-06T01:23:55;1.50;;;0.90;;
74636;SDS011;63141;54.616;39.754;2023-04-06T01:27:04;1.77;;;0.95;;
74636;SDS011;63141;54.616;39.754;2023-04-06T01:30:38;2.13;;;1.10;;
74636;SDS011;63141;54.616;39.754;2023-04-06T01:33:55;1.67;;;1.00;;
74636;SDS011;63141;54.616;39.754;2023-04-06T01:36:59;0.73;;;0.70;;
74636;SDS011;63141;54.616;39.754;2023-04-06T01:40:04;1.70;;;1.00;;
74636;SDS011;63141;54.616;39.754;2023-04-06T01:43:20;1.20;;;1.00;;
74636;SDS011;63141;54.616;39.754;2023-04-06T01:46:43;1.90;;;0.90;;
74636;SDS011;63141;54.616;39.754;2023-04-06T01:49:46;1.00;;;0.80;;
74636;SDS011;63141;54.616;39.754;2023-04-06T01:52:52;1.63;;;0.80;;
74636;SDS011;63141;54.616;39.754;2023-04-06T01:55:54;0.70;;;0.70;;
74636;SDS011;63141;54.616;39.754;2023-04-06T01:59:06;1.20;;;0.82;;
74636;SDS011;63141;54.616;39.754;2023-04-06T02:02:13;1.30;;;0.75;;
74636;SDS011;63141;54.616;39.754;2023-04-06T02:05:30;1.00;;;0.80;;
74636;SDS011;63141;54.616;39.754;2023-04-06T02:08:35;1.80;;;1.10;;
74636;SDS011;63141;54.616;39.754;2023-04-06T02:11:36;1.80;;;0.93;;
74636;SDS011;63141;54.616;39.754;2023-04-06T02:14:38;2.78;;;0.90;;
74636;SDS011;63141;54.616;39.754;2023-04-06T02:17:40;1.25;;;0.90;;
74636;SDS011;63141;54.616;39.754;2023-04-06T02:20:42;2.20;;;0.80;;
74636;SDS011;63141;54.616;39.754;2023-04-06T02:23:43;1.85;;;1.00;;
74636;SDS011;63141;54.616;39.754;2023-04-06T02:26:45;0.95;;;0.80;;
74636;SDS011;63141;54.616;39.754;2023-04-06T02:29:46;1.60;;;0.80;;
74636;SDS011;63141;54.616;39.754;2023-04-06T02:32:50;1.10;;;0.80;;
74636;SDS011;63141;54.616;39.754;2023-04-06T02:35:51;1.88;;;1.00;;
74636;SDS011;63141;54.616;39.754;2023-04-06T02:38:53;1.70;;;1.10;;
74636;SDS011;63141;54.616;39.754;2023-04-06T02:41:54;1.05;;;0.90;;
74636;SDS011;63141;54.616;39.754;2023-04-06T02:44:58;3.40;;;1.00;;
74636;SDS011;63141;54.616;39.754;2023-04-06T02:51:07;4.40;;;1.08;;
74636;SDS011;63141;54.616;39.754;2023-04-06T02:54:09;1.67;;;1.10;;
74636;SDS011;63141;54.616;39.754;2023-04-06T02:57:11;1.02;;;0.88;;
74636;SDS011;63141;54.616;39.754;2023-04-06T03:00:19;2.13;;;1.13;;
74636;SDS011;63141;54.616;39.754;2023-04-06T03:03:22;1.23;;;0.90;;
74636;SDS011;63141;54.616;39.754;2023-04-06T03:06:26;1.38;;;0.75;;
74636;SDS011;63141;54.616;39.754;2023-04-06T03:09:32;1.67;;;1.05;;
74636;SDS011;63141;54.616;39.754;2023-04-06T03:12:33;1.05;;;0.80;;
74636;SDS011;63141;54.616;39.754;2023-04-06T03:15:51;3.10;;;1.10;;
74636;SDS011;63141;54.616;39.754;2023-04-06T03:18:55;1.38;;;0.90;;
74636;SDS011;63141;54.616;39.754;2023-04-06T03:21:56;2.67;;;0.70;;
74636;SDS011;63141;54.616;39.754;2023-04-06T03:25:00;2.03;;;0.93;;
74636;SDS011;63141;54.616;39.754;2023-04-06T03:28:03;5.82;;;1.20;;
74636;SDS011;63141;54.616;39.754;2023-04-06T03:31:12;3.13;;;1.00;;
74636;SDS011;63141;54.616;39.754;2023-04-06T03:34:32;1.50;;;0.90;;
74636;SDS011;63141;54.616;39.754;2023-04-06T03:37:33;1.83;;;1.02;;
74636;SDS011;63141;54.616;39.754;2023-04-06T03:40:37;1.35;;;1.00;;
74636;SDS011;63141;54.616;39.754;2023-04-06T03:43:45;3.28;;;1.35;;
74636;SDS011;63141;54.616;39.754;2023-04-06T03:46:47;12.68;;;1.63;;
74636;SDS011;63141;54.616;39.754;2023-04-06T03:49:48;8.15;;;1.58;;
74636;SDS011;63141;54.616;39.754;2023-04-06T03:52:50;6.53;;;1.50;;
74636;SDS011;63141;54.616;39.754;2023-04-06T03:55:52;4.60;;;1.20;;
74636;SDS011;63141;54.616;39.754;2023-04-06T03:58:53;5.13;;;1.60;;
74636;SDS011;63141;54.616;39.754;2023-04-06T04:01:57;9.02;;;1.73;;
74636;SDS011;63141;54.616;39.754;2023-04-06T04:05:04;5.10;;;1.42;;
74636;SDS011;63141;54.616;39.754;2023-04-06T04:08:06;6.82;;;1.58;;
74636;SDS011;63141;54.616;39.754;2023-04-06T04:11:07;5.90;;;1.20;;
74636;SDS011;63141;54.616;39.754;2023-04-06T04:14:09;4.35;;;1.58;;
74636;SDS011;63141;54.616;39.754;2023-04-06T04:17:14;3.40;;;1.38;;
74636;SDS011;63141;54.616;39.754;2023-04-06T04:20:22;6.88;;;1.70;;
74636;SDS011;63141;54.616;39.754;2023-04-06T04:23:24;4.38;;;1.52;;
74636;SDS011;63141;54.616;39.754;2023-04-06T04:26:31;7.97;;;1.73;;
74636;SDS011;63141;54.616;39.754;2023-04-06T04:29:32;7.20;;;1.58;;
74636;SDS011;63141;54.616;39.754;2023-04-06T04:32:38;4.20;;;1.48;;
74636;SDS011;63141;54.616;39.754;2023-04-06T04:35:43;3.58;;;1.50;;
74636;SDS011;63141;54.616;39.754;2023-04-06T04:38:50;6.03;;;1.75;;
74636;SDS011;63141;54.616;39.754;2023-04-06T04:41:57;5.30;;;1.25;;
74636;SDS011;63141;54.616;39.754;2023-04-06T04:45:07;2.50;;;1.35;;
74636;SDS011;63141;54.616;39.754;2023-04-06T04:48:12;9.37;;;1.93;;
74636;SDS011;63141;54.616;39.754;2023-04-06T04:51:28;8.10;;;1.73;;
74636;SDS011;63141;54.616;39.754;2023-04-06T04:54:43;9.07;;;1.75;;
74636;SDS011;63141;54.616;39.754;2023-04-06T04:57:50;6.43;;;1.80;;
74636;SDS011;63141;54.616;39.754;2023-04-06T05:01:01;8.05;;;1.50;;
74636;SDS011;63141;54.616;39.754;2023-04-06T05:04:02;9.15;;;1.63;;
74636;SDS011;63141;54.616;39.754;2023-04-06T05:07:09;4.95;;;1.45;;
74636;SDS011;63141;54.616;39.754;2023-04-06T05:10:15;6.03;;;1.90;;
74636;SDS011;63141;54.616;39.754;2023-04-06T05:13:26;6.20;;;1.70;;
74636;SDS011;63141;54.616;39.754;2023-04-06T05:16:29;3.67;;;1.50;;
74636;SDS011;63141;54.616;39.754;2023-04-06T05:19:31;8.35;;;2.20;;
74636;SDS011;63141;54.616;39.754;2023-04-06T05:22:32;7.05;;;1.42;;
74636;SDS011;63141;54.616;39.754;2023-04-06T05:25:45;10.38;;;1.90;;
74636;SDS011;63141;54.616;39.754;2023-04-06T05:28:56;7.55;;;1.65;;
74636;SDS011;63141;54.616;39.754;2023-04-06T05:31:59;9.73;;;1.77;;
74636;SDS011;63141;54.616;39.754;2023-04-06T05:35:04;5.88;;;1.67;;
74636;SDS011;63141;54.616;39.754;2023-04-06T05:38:09;11.77;;;1.92;;
74636;SDS011;63141;54.616;39.754;2023-04-06T05:41:28;9.18;;;1.48;;
74636;SDS011;63141;54.616;39.754;2023-04-06T05:44:30;5.97;;;1.40;;
74636;SDS011;63141;54.616;39.754;2023-04-06T05:47:45;6.75;;;1.45;;
74636;SDS011;63141;54.616;39.754;2023-04-06T05:51:03;7.82;;;1.75;;
74636;SDS011;63141;54.616;39.754;2023-04-06T05:54:21;5.72;;;1.42;;
74636;SDS011;63141;54.616;39.754;2023-04-06T05:57:37;5.32;;;1.67;;
74636;SDS011;63141;54.616;39.754;2023-04-06T06:00:47;6.05;;;1.50;;
74636;SDS011;63141;54.616;39.754;2023-04-06T06:04:16;4.55;;;1.40;;
74636;SDS011;63141;54.616;39.754;2023-04-06T06:07:32;5.70;;;1.80;;
74636;SDS011;63141;54.616;39.754;2023-04-06T06:10:37;5.97;;;1.50;;
74636;SDS011;63141;54.616;39.754;2023-04-06T06:13:41;6.75;;;1.70;;
74636;SDS011;63141;54.616;39.754;2023-04-06T06:16:45;4.25;;;1.30;;
74636;SDS011;63141;54.616;39.754;2023-04-06T06:19:50;6.13;;;1.45;;
74636;SDS011;63141;54.616;39.754;2023-04-06T06:22:52;4.60;;;1.63;;
74636;SDS011;63141;54.616;39.754;2023-04-06T06:26:02;9.02;;;1.60;;
74636;SDS011;63141;54.616;39.754;2023-04-06T06:29:10;5.30;;;1.70;;
74636;SDS011;63141;54.616;39.754;2023-04-06T06:32:13;4.55;;;1.65;;
74636;SDS011;63141;54.616;39.754;2023-04-06T06:35:16;4.03;;;1.83;;
74636;SDS011;63141;54.616;39.754;2023-04-06T06:38:18;4.85;;;1.52;;
74636;SDS011;63141;54.616;39.754;2023-04-06T06:41:22;2.75;;;1.52;;
74636;SDS011;63141;54.616;39.754;2023-04-06T06:44:24;5.88;;;1.70;;
74636;SDS011;63141;54.616;39.754;2023-04-06T06:47:29;3.15;;;1.50;;
74636;SDS011;63141;54.616;39.754;2023-04-06T06:50:33;5.88;;;1.58;;
74636;SDS011;63141;54.616;39.754;2023-04-06T06:53:55;6.22;;;1.67;;
74636;SDS011;63141;54.616;39.754;2023-04-06T06:57:02;5.05;;;1.50;;
74636;SDS011;63141;54.616;39.754;2023-04-06T07:00:14;3.63;;;1.52;;
74636;SDS011;63141;54.616;39.754;2023-04-06T07:03:18;5.28;;;1.60;;
74636;SDS011;63141;54.616;39.754;2023-04-06T07:06:28;8.63;;;1.90;;
74636;SDS011;63141;54.616;39.754;2023-04-06T07:09:41;9.00;;;1.63;;
74636;SDS011;63141;54.616;39.754;2023-04-06T07:12:57;3.78;;;1.63;;
74636;SDS011;63141;54.616;39.754;2023-04-06T07:16:07;4.47;;;1.67;;
74636;SDS011;63141;54.616;39.754;2023-04-06T07:19:12;6.35;;;1.85;;
74636;SDS011;63141;54.616;39.754;2023-04-06T07:22:19;6.60;;;1.88;;
74636;SDS011;63141;54.616;39.754;2023-04-06T07:25:30;5.28;;;1.60;;
74636;SDS011;63141;54.616;39.754;2023-04-06T07:28:36;4.07;;;1.38;;
74636;SDS011;63141;54.616;39.754;2023-04-06T07:31:46;3.92;;;1.77;;
74636;SDS011;63141;54.616;39.754;2023-04-06T07:34:53;9.40;;;1.80;;
74636;SDS011;63141;54.616;39.754;2023-04-06T07:37:54;5.45;;;1.50;;
74636;SDS011;63141;54.616;39.754;2023-04-06T07:40:59;3.25;;;1.50;;
74636;SDS011;63141;54.616;39.754;2023-04-06T07:44:13;10.00;;;1.63;;
74636;SDS011;63141;54.616;39.754;2023-04-06T07:47:26;9.85;;;2.10;;
74636;SDS011;63141;54.616;39.754;2023-04-06T07:50:37;5.68;;;1.75;;
74636;SDS011;63141;54.616;39.754;2023-04-06T07:53:40;9.68;;;1.80;;
74636;SDS011;63141;54.616;39.754;2023-04-06T07:56:50;8.73;;;1.70;;
74636;SDS011;63141;54.616;39.754;2023-04-06T08:00:18;4.95;;;1.77;;
74636;SDS011;63141;54.616;39.754;2023-04-06T08:03:23;6.25;;;1.60;;
74636;SDS011;63141;54.616;39.754;2023-04-06T08:06:30;15.35;;;2.20;;
74636;SDS011;63141;54.616;39.754;2023-04-06T08:09:32;6.20;;;1.85;;
74636;SDS011;63141;54.616;39.754;2023-04-06T08:12:36;12.32;;;1.70;;
74636;SDS011;63141;54.616;39.754;2023-04-06T08:15:37;8.32;;;1.90;;
74636;SDS011;63141;54.616;39.754;2023-04-06T08:18:48;6.97;;;2.28;;
74636;SDS011;63141;54.616;39.754;2023-04-06T08:21:49;8.65;;;1.50;;
74636;SDS011;63141;54.616;39.754;2023-04-06T08:25:03;5.95;;;1.90;;
74636;SDS011;63141;54.616;39.754;2023-04-06T08:28:10;6.63;;;1.50;;
74636;SDS011;63141;54.616;39.754;2023-04-06T08:31:17;10.57;;;1.80;;
74636;SDS011;63141;54.616;39.754;2023-04-06T08:34:22;8.95;;;1.90;;
74636;SDS011;63141;54.616;39.754;2023-04-06T08:37:35;9.75;;;1.70;;
74636;SDS011;63141;54.616;39.754;2023-04-06T08:40:40;4.63;;;1.75;;
74636;SDS011;63141;54.616;39.754;2023-04-06T08:47:15;8.13;;;1.88;;
74636;SDS011;63141;54.616;39.754;2023-04-06T08:50:19;12.52;;;2.25;;
74636;SDS011;63141;54.616;39.754;2023-04-06T08:53:24;7.50;;;2.05;;
74636;SDS011;63141;54.616;39.754;2023-04-06T08:56:31;8.75;;;2.00;;
74636;SDS011;63141;54.616;39.754;2023-04-06T08:59:36;9.25;;;1.60;;
74636;SDS011;63141;54.616;39.754;2023-04-06T09:02:46;4.70;;;1.92;;
74636;SDS011;63141;54.616;39.754;2023-04-06T09:06:03;7.78;;;1.90;;
74636;SDS011;63141;54.616;39.754;2023-04-06T09:09:11;5.22;;;2.05;;
74636;SDS011;63141;54.616;39.754;2023-04-06T09:12:22;9.48;;;2.15;;
74636;SDS011;63141;54.616;39.754;2023-04-06T09:15:29;9.13;;;2.10;;
74636;SDS011;63141;54.616;39.754;2023-04-06T09:18:34;11.93;;;1.88;;
74636;SDS011;63141;54.616;39.754;2023-04-06T09:21:47;11.55;;;2.05;;
74636;SDS011;63141;54.616;39.754;2023-04-06T09:25:18;9.68;;;2.03;;
74636;SDS011;63141;54.616;39.754;2023-04-06T09:28:26;8.00;;;2.20;;
74636;SDS011;63141;54.616;39.754;2023-04-06T09:31:29;14.73;;;2.30;;
74636;SDS011;63141;54.616;39.754;2023-04-06T09:34:40;5.60;;;1.92;;
74636;SDS011;63141;54.616;39.754;2023-04-06T09:37:50;11.60;;;1.98;;
74636;SDS011;63141;54.616;39.754;2023-04-06T09:41:04;16.00;;;2.38;;
74636;SDS011;63141;54.616;39.754;2023-04-06T09:44:11;4.72;;;1.52;;
74636;SDS011;63141;54.616;39.754;2023-04-06T09:47:17;9.45;;;2.08;;
74636;SDS011;63141;54.616;39.754;2023-04-06T09:50:29;16.70;;;2.42;;
74636;SDS011;63141;54.616;39.754;2023-04-06T09:53:41;14.00;;;2.20;;
74636;SDS011;63141;54.616;39.754;2023-04-06T10:00:21;15.23;;;2.40;;
74636;SDS011;63141;54.616;39.754;2023-04-06T10:03:36;7.47;;;1.83;;
74636;SDS011;63141;54.616;39.754;2023-04-06T10:06:50;21.77;;;2.35;;
74636;SDS011;63141;54.616;39.754;2023-04-06T10:09:56;9.13;;;1.95;;
74636;SDS011;63141;54.616;39.754;2023-04-06T10:13:05;10.63;;;2.03;;
74636;SDS011;63141;54.616;39.754;2023-04-06T10:16:14;13.00;;;1.98;;
74636;SDS011;63141;54.616;39.754;2023-04-06T10:19:26;9.45;;;1.92;;
74636;SDS011;63141;54.616;39.754;2023-04-06T10:26:13;17.10;;;2.22;;
74636;SDS011;63141;54.616;39.754;2023-04-06T10:29:19;10.88;;;1.80;;
74636;SDS011;63141;54.616;39.754;2023-04-06T10:32:37;12.75;;;2.22;;
74636;SDS011;63141;54.616;39.754;2023-04-06T10:35:48;10.77;;;1.90;;
74636;SDS011;63141;54.616;39.754;2023-04-06T10:38:56;8.60;;;1.92;;
74636;SDS011;63141;54.616;39.754;2023-04-06T10:42:05;11.70;;;2.17;;
74636;SDS011;63141;54.616;39.754;2023-04-06T10:45:23;7.38;;;2.22;;
74636;SDS011;63141;54.616;39.754;2023-04-06T10:48:44;27.00;;;2.90;;
74636;SDS011;63141;54.616;39.754;2023-04-06T10:51:59;20.95;;;2.38;;
74636;SDS011;63141;54.616;39.754;2023-04-06T10:55:08;16.85;;;2.33;;
74636;SDS011;63141;54.616;39.754;2023-04-06T10:58:20;9.20;;;1.98;;
74636;SDS011;63141;54.616;39.754;2023-04-06T11:01:24;12.25;;;2.10;;
74636;SDS011;63141;54.616;39.754;2023-04-06T11:04:34;21.05;;;2.55;;
74636;SDS011;63141;54.616;39.754;2023-04-06T11:07:46;20.42;;;2.35;;
74636;SDS011;63141;54.616;39.754;2023-04-06T11:10:48;13.05;;;2.47;;
74636;SDS011;63141;54.616;39.754;2023-04-06T11:14:16;17.55;;;2.10;;
74636;SDS011;63141;54.616;39.754;2023-04-06T11:17:17;14.77;;;2.35;;
74636;SDS011;63141;54.616;39.754;2023-04-06T11:20:26;8.23;;;1.85;;
74636;SDS011;63141;54.616;39.754;2023-04-06T11:23:30;13.98;;;1.85;;
74636;SDS011;63141;54.616;39.754;2023-04-06T11:26:41;15.80;;;2.45;;
74636;SDS011;63141;54.616;39.754;2023-04-06T11:29:49;11.48;;;2.15;;
74636;SDS011;63141;54.616;39.754;2023-04-06T11:33:00;12.07;;;2.13;;
74636;SDS011;63141;54.616;39.754;2023-04-06T11:36:07;12.15;;;2.03;;
74636;SDS011;63141;54.616;39.754;2023-04-06T11:39:19;10.60;;;1.80;;
74636;SDS011;63141;54.616;39.754;2023-04-06T11:42:26;13.60;;;2.28;;
74636;SDS011;63141;54.616;39.754;2023-04-06T11:45:45;13.82;;;1.83;;
74636;SDS011;63141;54.616;39.754;2023-04-06T11:48:49;10.07;;;2.03;;
74636;SDS011;63141;54.616;39.754;2023-04-06T11:51:53;12.38;;;2.63;;
74636;SDS011;63141;54.616;39.754;2023-04-06T11:54:54;7.95;;;1.90;;
74636;SDS011;63141;54.616;39.754;2023-04-06T11:58:03;7.10;;;2.08;;
74636;SDS011;63141;54.616;39.754;2023-04-06T12:01:16;9.32;;;1.92;;
74636;SDS011;63141;54.616;39.754;2023-04-06T12:04:17;10.45;;;2.33;;
74636;SDS011;63141;54.616;39.754;2023-04-06T12:11:08;14.98;;;2.50;;
74636;SDS011;63141;54.616;39.754;2023-04-06T12:14:18;10.38;;;2.10;;
74636;SDS011;63141;54.616;39.754;2023-04-06T12:17:41;14.88;;;2.20;;
74636;SDS011;63141;54.616;39.754;2023-04-06T12:21:00;10.07;;;2.30;;
74636;SDS011;63141;54.616;39.754;2023-04-06T12:24:10;5.10;;;1.73;;
74636;SDS011;63141;54.616;39.754;2023-04-06T12:27:21;8.75;;;1.98;;
74636;SDS011;63141;54.616;39.754;2023-04-06T12:30:31;4.97;;;1.75;;
74636;SDS011;63141;54.616;39.754;2023-04-06T12:33:36;8.00;;;2.05;;
74636;SDS011;63141;54.616;39.754;2023-04-06T12:36:41;8.40;;;2.05;;
74636;SDS011;63141;54.616;39.754;2023-04-06T12:39:45;8.63;;;1.80;;
74636;SDS011;63141;54.616;39.754;2023-04-06T12:42:47;10.95;;;2.10;;
74636;SDS011;63141;54.616;39.754;2023-04-06T12:46:00;9.85;;;2.30;;
74636;SDS011;63141;54.616;39.754;2023-04-06T12:49:07;11.93;;;1.83;;
74636;SDS011;63141;54.616;39.754;2023-04-06T12:52:14;6.00;;;1.50;;
74636;SDS011;63141;54.616;39.754;2023-04-06T12:55:16;10.75;;;1.73;;
74636;SDS011;63141;54.616;39.754;2023-04-06T12:58:17;12.52;;;2.38;;
74636;SDS011;63141;54.616;39.754;2023-04-06T13:01:21;6.32;;;1.50;;
74636;SDS011;63141;54.616;39.754;2023-04-06T13:04:26;9.77;;;2.00;;
74636;SDS011;63141;54.616;39.754;2023-04-06T13:07:30;9.75;;;1.80;;
74636;SDS011;63141;54.616;39.754;2023-04-06T13:10:44;5.70;;;1.88;;
74636;SDS011;63141;54.616;39.754;2023-04-06T13:13:49;13.30;;;2.28;;
74636;SDS011;63141;54.616;39.754;2023-04-06T13:16:59;4.22;;;1.50;;
74636;SDS011;63141;54.616;39.754;2023-04-06T13:20:22;8.65;;;1.95;;
74636;SDS011;63141;54.616;39.754;2023-04-06T13:23:39;4.45;;;1.90;;
74636;SDS011;63141;54.616;39.754;2023-04-06T13:26:47;6.78;;;1.70;;
74636;SDS011;63141;54.616;39.754;2023-04-06T13:29:51;6.97;;;1.80;;
74636;SDS011;63141;54.616;39.754;2023-04-06T13:33:02;16.17;;;2.00;;
74636;SDS011;63141;54.616;39.754;2023-04-06T13:36:12;13.07;;;1.70;;
74636;SDS011;63141;54.616;39.754;2023-04-06T13:39:26;13.60;;;2.00;;
74636;SDS011;63141;54.616;39.754;2023-04-06T13:42:39;9.40;;;1.85;;
74636;SDS011;63141;54.616;39.754;2023-04-06T13:45:51;12.57;;;2.08;;
74636;SDS011;63141;54.616;39.754;2023-04-06T13:49:04;7.95;;;2.05;;
74636;SDS011;63141;54.616;39.754;2023-04-06T13:52:09;10.75;;;1.92;;
74636;SDS011;63141;54.616;39.754;2023-04-06T13:55:19;14.07;;;2.22;;
74636;SDS011;63141;54.616;39.754;2023-04-06T13:58:21;7.88;;;2.03;;
74636;SDS011;63141;54.616;39.754;2023-04-06T14:01:31;6.07;;;1.67;;
74636;SDS011;63141;54.616;39.754;2023-04-06T14:04:32;8.88;;;2.25;;
74636;SDS011;63141;54.616;39.754;2023-04-06T14:07:47;11.45;;;2.00;;
74636;SDS011;63141;54.616;39.754;2023-04-06T14:11:10;7.15;;;1.83;;
74636;SDS011;63141;54.616;39.754;2023-04-06T14:14:18;7.85;;;1.98;;
74636;SDS011;63141;54.616;39.754;2023-04-06T14:17:20;16.90;;;1.85;;
74636;SDS011;63141;54.616;39.754;2023-04-06T14:24:09;10.45;;;2.47;;
74636;SDS011;63141;54.616;39.754;2023-04-06T14:27:32;9.77;;;2.13;;
74636;SDS011;63141;54.616;39.754;2023-04-06T14:30:39;7.35;;;1.88;;
74636;SDS011;63141;54.616;39.754;2023-04-06T14:34:07;9.55;;;2.17;;
74636;SDS011;63141;54.616;39.754;2023-04-06T14:37:14;7.57;;;1.90;;
74636;SDS011;63141;54.616;39.754;2023-04-06T14:40:19;5.15;;;1.75;;
74636;SDS011;63141;54.616;39.754;2023-04-06T14:43:29;9.90;;;1.88;;
74636;SDS011;63141;54.616;39.754;2023-04-06T14:46:42;7.60;;;1.65;;
74636;SDS011;63141;54.616;39.754;2023-04-06T14:49:50;7.40;;;1.65;;
74636;SDS011;63141;54.616;39.754;2023-04-06T14:52:58;7.47;;;2.05;;
74636;SDS011;63141;54.616;39.754;2023-04-06T14:56:02;11.00;;;1.98;;
74636;SDS011;63141;54.616;39.754;2023-04-06T14:59:16;6.57;;;1.83;;
74636;SDS011;63141;54.616;39.754;2023-04-06T15:02:32;10.90;;;1.70;;
74636;SDS011;63141;54.616;39.754;2023-04-06T15:05:49;4.97;;;1.50;;
74636;SDS011;63141;54.616;39.754;2023-04-06T15:09:14;11.88;;;1.90;;
74636;SDS011;63141;54.616;39.754;2023-04-06T15:12:16;13.35;;;1.92;;
74636;SDS011;63141;54.616;39.754;2023-04-06T15:15:26;13.13;;;2.42;;
74636;SDS011;63141;54.616;39.754;2023-04-06T15:18:33;10.07;;;2.40;;
74636;SDS011;63141;54.616;39.754;2023-04-06T15:21:36;9.27;;;1.77;;
74636;SDS011;63141;54.616;39.754;2023-04-06T15:24:46;8.73;;;1.75;;
74636;SDS011;63141;54.616;39.754;2023-04-06T15:28:23;9.32;;;2.15;;
74636;SDS011;63141;54.616;39.754;2023-04-06T15:31:33;10.13;;;2.15;;
74636;SDS011;63141;54.616;39.754;2023-04-06T15:34:37;13.70;;;1.98;;
74636;SDS011;63141;54.616;39.754;2023-04-06T15:37:54;8.40;;;1.90;;
74636;SDS011;63141;54.616;39.754;2023-04-06T15:40:59;10.50;;;2.25;;
74636;SDS011;63141;54.616;39.754;2023-04-06T15:44:06;7.00;;;1.90;;
74636;SDS011;63141;54.616;39.754;2023-04-06T15:47:17;7.55;;;1.88;;
74636;SDS011;63141;54.616;39.754;2023-04-06T15:50:24;10.05;;;2.25;;
74636;SDS011;63141;54.616;39.754;2023-04-06T15:53:32;11.55;;;1.92;;
74636;SDS011;63141;54.616;39.754;2023-04-06T15:56:48;6.38;;;1.77;;
74636;SDS011;63141;54.616;39.754;2023-04-06T15:59:56;14.60;;;1.83;;
74636;SDS011;63141;54.616;39.754;2023-04-06T16:03:21;4.80;;;1.65;;
74636;SDS011;63141;54.616;39.754;2023-04-06T16:06:46;6.40;;;1.60;;
74636;SDS011;63141;54.616;39.754;2023-04-06T16:09:54;11.32;;;2.03;;
74636;SDS011;63141;54.616;39.754;2023-04-06T16:13:01;8.02;;;1.95;;
74636;SDS011;63141;54.616;39.754;2023-04-06T16:16:22;14.48;;;1.80;;
74636;SDS011;63141;54.616;39.754;2023-04-06T16:19:27;9.00;;;1.73;;
74636;SDS011;63141;54.616;39.754;2023-04-06T16:22:34;11.85;;;1.85;;
74636;SDS011;63141;54.616;39.754;2023-04-06T16:25:39;9.63;;;1.90;;
74636;SDS011;63141;54.616;39.754;2023-04-06T16:29:00;7.38;;;1.70;;
74636;SDS011;63141;54.616;39.754;2023-04-06T16:32:02;6.65;;;2.00;;
74636;SDS011;63141;54.616;39.754;2023-04-06T16:35:14;10.85;;;1.92;;
74636;SDS011;63141;54.616;39.754;2023-04-06T16:38:55;4.90;;;1.80;;
74636;SDS011;63141;54.616;39.754;2023-04-06T16:42:10;10.18;;;1.75;;
74636;SDS011;63141;54.616;39.754;2023-04-06T16:45:25;12.30;;;1.92;;
74636;SDS011;63141;54.616;39.754;2023-04-06T16:48:52;12.27;;;1.73;;
74636;SDS011;63141;54.616;39.754;2023-04-06T16:52:03;10.55;;;2.28;;
74636;SDS011;63141;54.616;39.754;2023-04-06T16:55:19;7.00;;;1.90;;
74636;SDS011;63141;54.616;39.754;2023-04-06T16:58:35;8.70;;;1.90;;
74636;SDS011;63141;54.616;39.754;2023-04-06T17:01:57;2.70;;;1.45;;
74636;SDS011;63141;54.616;39.754;2023-04-06T17:05:25;4.38;;;1.63;;
74636;SDS011;63141;54.616;39.754;2023-04-06T17:08:33;6.20;;;1.63;;
74636;SDS011;63141;54.616;39.754;2023-04-06T17:11:50;6.55;;;1.88;;
74636;SDS011;63141;54.616;39.754;2023-04-06T17:14:58;11.65;;;2.00;;
74636;SDS011;63141;54.616;39.754;2023-04-06T17:18:05;8.93;;;1.92;;
74636;SDS011;63141;54.616;39.754;2023-04-06T17:21:33;8.43;;;1.67;;
74636;SDS011;63141;54.616;39.754;2023-04-06T17:24:54;5.78;;;1.90;;
74636;SDS011;63141;54.616;39.754;2023-04-06T17:28:19;3.60;;;1.40;;
74636;SDS011;63141;54.616;39.754;2023-04-06T17:31:32;6.22;;;1.70;;
74636;SDS011;63141;54.616;39.754;2023-04-06T17:34:42;11.75;;;1.60;;
74636;SDS011;63141;54.616;39.754;2023-04-06T17:37:58;5.28;;;1.45;;
74636;SDS011;63141;54.616;39.754;2023-04-06T17:41:03;5.80;;;1.65;;
74636;SDS011;63141;54.616;39.754;2023-04-06T17:44:31;10.00;;;2.13;;
74636;SDS011;63141;54.616;39.754;2023-04-06T17:47:36;13.35;;;3.03;;
74636;SDS011;63141;54.616;39.754;2023-04-06T17:50:40;6.97;;;1.63;;
74636;SDS011;63141;54.616;39.754;2023-04-06T17:53:51;6.00;;;1.58;;
74636;SDS011;63141;54.616;39.754;2023-04-06T17:56:58;5.90;;;1.40;;
74636;SDS011;63141;54.616;39.754;2023-04-06T18:00:14;6.63;;;1.80;;
74636;SDS011;63141;54.616;39.754;2023-04-06T18:03:51;5.07;;;1.33;;
74636;SDS011;63141;54.616;39.754;2023-04-06T18:07:04;6.55;;;1.40;;
74636;SDS011;63141;54.616;39.754;2023-04-06T18:10:20;6.13;;;1.40;;
74636;SDS011;63141;54.616;39.754;2023-04-06T18:13:34;4.95;;;1.40;;
74636;SDS011;63141;54.616;39.754;2023-04-06T18:16:47;4.10;;;1.30;;
74636;SDS011;63141;54.616;39.754;2023-04-06T18:19:58;3.13;;;1.20;;
74636;SDS011;63141;54.616;39.754;2023-04-06T18:23:05;5.28;;;1.30;;
74636;SDS011;63141;54.616;39.754;2023-04-06T18:26:13;2.85;;;1.20;;
74636;SDS011;63141;54.616;39.754;2023-04-06T18:29:17;3.22;;;1.10;;
74636;SDS011;63141;54.616;39.754;2023-04-06T18:32:27;5.20;;;1.70;;
74636;SDS011;63141;54.616;39.754;2023-04-06T18:35:43;2.47;;;1.55;;
74636;SDS011;63141;54.616;39.754;2023-04-06T18:38:58;4.18;;;1.40;;
74636;SDS011;63141;54.616;39.754;2023-04-06T18:42:12;2.80;;;1.30;;
74636;SDS011;63141;54.616;39.754;2023-04-06T18:45:31;2.92;;;1.20;;
74636;SDS011;63141;54.616;39.754;2023-04-06T18:49:06;4.32;;;1.33;;
74636;SDS011;63141;54.616;39.754;2023-04-06T18:52:26;3.78;;;1.10;;
74636;SDS011;63141;54.616;39.754;2023-04-06T18:55:27;6.32;;;1.30;;
74636;SDS011;63141;54.616;39.754;2023-04-06T18:58:36;2.55;;;1.10;;